Timeline UpdatesTrip UpdatesNews PostsPvt Posts♥♥Travel TipsAdmin PostsConv PostsFollowed PostsChat RequestsBlog PostsPNR Posts

Disclaimer
Search
 
 
Sat Nov 1, 2014 16:37:50 ISTHomeTrainsΣChainsAtlasPNRForumGalleryNewsFAQTripsMembersLoginFeedback
No Recent News for this Train
Other Trains in the News **new
Latest...
12722 Slip is Pair of this Link service officialy known as "Link Dakshin Express".
Mon May 21, 2012 (01:50PM)
⇐ Return Journey: Train# 12862

12861/Visakhapatnam-H.Nizamuddin Link SF Express

Time-Table HAS CHANGED.
Sep 07 2014 (5:25PM)
Change Departure Station:
Change Arrival Station:
Post a Train Travel TipPost a Train Travel Tip **new
Post a Comment/Question/Picture/VideoPost a Comment/Question/Picture/Video
Inaugural Run
Tue Oct 01, 1985
Pantry/Catering
✕ NO Pantry Car
✓ Catering Avbl
Loco/Rake Reversals
BZA/Vijayawada Junction (10); KZJ/Kazipet Junction (3);
RSA - Rake Sharing
Rake/Coach Composition
LOCO(LGD-WAP4)-SLR-S4-S5-S6-B1-A1-GS-GS-GS-GS-SLR (Loco Reversal at BZA); From KZJ to NZM, 12721 Dakshin Exp; LOCO(LGD-WAP7)-SLR-S4-S5-S6-A1-B1-SLRD-A2-B2-PC-S8-S9-S10-S11-S12-S13-S14-GS-GS-GS-GS-SLR
Loco
WAP4
News    PNR    Forum    Time-Table    Availability    Fare Chart    Map    Arr/Dep History    Trips    Gallery    ΣChains    X/O    Timeline    
Travel Time: 11h 34m    19 halts    Distance: 660 km    Avg Speed: 57 km/hr
Type: SuperFast
Zone: ECoR/East Coast
Departs @ 15:10 (Avg 2m late)
Platform# 5
SMTWTFS
Visakhapatnam Junction/VSKP 
Arrives @ 02:44 +1 night
Platform# 1
SMTWTFS
Ramagundam/RDM 

19 halts. 104 intermediate Stations between Visakhapatnam Junction and Ramagundam

Show ALL intermediate Stations  Show Old Time-Table

#TrkCodeStation NameX/OArrivesAvgDepartsAvgHaltPFDay#KmSpeedElevZoneAddress
1/==/VSKPVisakhapatnam Junction (8)»  -15:10+2510.03411mECoRVishakhapatnam 530001, Andhra Pradesh
2/==/DVDDuvvada (4)X  15:39+315:40+41m1116.36846mECoRVishakhapatnam District, Andhra Pradesh
3/==/AKPAnakapalle (3)X  15:54+1115:55+131m2132.38930mSCRAnakapalle ph.no . 08924-221698, Andhra Pradesh
4/==/TUNITuni (2)  16:38+2016:39+211m1196.17124mSCRTuni ph.no. 08854-252172, Andhra Pradesh
5/==/ANVAnnavaram (3)X  16:53+2216:54+231m11112.78227mSCREast Godavari District, Andhra Pradesh
6/==/SLOSamalkot Junction (3)X  17:21+2517:22+251m31149.65618mSCRSamalkot, Andhra Pradesh
7/==/RJYRajahmundry (3)X  18:16+2318:18+282m11199.85823mSCRRajahmundry ph.no. 0883-2420541, Andhra Pradesh
8/==/NDDNidadavolu Junction (3)X  18:41+3918:42+401m31221.97120mSCRNidadavolu jtn ph.no. 08813-210325, Andhra Pradesh
9/==/TDDTadepalligudem (3)  18:59+3919:00+391m31241.98718mSCRTadepalligudem, Andhra Pradesh
10/==/EEEluru (3)  19:33+4019:34+401m31289.73519mSCREluru Ph.no. 08812 226401., Andhra Pradesh
11/==/BZAVijayawada Junction (10)X21:15+721:30+915m71349.16124mSCRVijayawada 520001, Andhra Pradesh
12/==/MDRMadhira (2)  22:25+2722:26+271m21404.69061mSCRKhammam Dist., Telangana
13/==/KMTKhammam (2)X  22:56+2522:58+262m21449.586118mSCRKhammam 507001, Telangana
14/==/DKJDornakal Junction (3)X  23:14+3523:15+351m11472.567153mSCRWarangal District, Telangana
15/==/MABDMahbubabad (2)  23:37+2923:38+301m21496.9149200mSCRWarangal Dist., Telangana
16/==/KDMKesamudram (2)X  23:44+4023:45+401m21511.859223mSCRWarangal Dist., Telangana
17/==/WLWarangal (3)X  00:31+1700:33+142m22557.023271mSCRWarangal., Telangana
18/==/KZJKazipet Junction (3)X↵¶01:00+501:30+030m22567.289292mSCRWarangal Dist., Telangana
19/==/JMKTJamikunta (2)X  01:54-01:55-1m12602.891236mSCRKarimnagar Dist., Telangana
20/==/PDPLPeddapalli Junction (2)O  02:21-02:22-1m12642.348228mSCRKarimnagar Dist., Telangana
21/==/RDMRamagundam (3)•O  02:44-02:45-1m12659.859170mSCRKarimnagar Dist. Ph : 08728 - 255237, Telangana
22/==/MCIManchiryal (3)X  02:59-03:00-1m12673.563159mSCRAdilabad Dist., Telangana
23/==/BPABellampalli (3)X  03:19-03:20-1m12693.459205mSCRTel:.08735 223298, Telangana
24/==/SKZRSirpur Kaghaznagar (3)X  03:59-04:00-1m12731.952181mSCRAdilabad Dist., Telangana
25/==/BPQBalharshah Junction (5)X  05:20-05:30-10m--2801.643188mCRBallarpur. Ph : 07172 - 240341, Maharashtra
26/==/CDChandrapur Maharashtra (3)  05:49-05:50-1m--2815.463194mCRChandrapur 442401, Maharashtra
27/==/BUXBhandak (5)  06:13-06:14-1m--2839.763207mCRChandrapur, Maharashtra
28/==/WRRWarora (2)X  06:35-06:36-1m--2861.878214mCRWarora, Maharashtra
29/==/HGTHinganghat (3)  07:06-07:07-1m--2900.844228mCRHinganghat, Maharashtra
30/==/SEGMSewagram Junction (5)  07:52-07:53-1m--2934.076279mCRWardha, Maharashtra
31/==/SNISindi (2)  08:16-08:17-1m--2963.377258mCRWardha, Maharashtra
32/==/AJNIAjni (3)  08:51-08:52-1m--21007.28310mCRNagpur 440003, Maharashtra
33/==/NGPNagpur Junction (8)X  09:15-09:25-10m121010.270314mCRNagpur 440001, Maharashtra
34/==/KATLKatol (2)  10:17-10:18-1m--21071.060 CRKatol. District Nagpur, Maharashtra
35/==/NRKRNarkher Junction (4)X  10:43-10:44-1m--21096.261411mCRDistrict Nagpur, Maharashtra
36/==/PARPandhurna (2)  11:02-11:03-1m--21114.560481mCRDistt: Chhindwara, Madhya Pradesh
37/==/MTYMultai (2)X  11:44-11:45-1m--21155.365762mCRMultai, Madhya Pradesh
38/==/AMLAAmla Junction (5)O  12:06-12:08-2m--21178.269733mCRAmla Distt. Betul, Madhya Pradesh
39/==/BZUBetul (3)X  12:28-12:29-1m--21201.151644mCRBetul, Madhya Pradesh
40/==/GDYAGhoradongri (3)X  13:11-13:12-1m--21237.045 CRBetul, Madhya Pradesh
41/==/ETItarsi Junction (7)  14:45-14:55-10m--21307.457329mWCRItarsi 461111, Madhya Pradesh
42/==/HBDHoshangabad (2)O  15:14-15:15-1m--21325.563308mWCRHoshangabad, Madhya Pradesh
43/==/HBJBhopal HabibGanj (5)X  16:19-16:20-1m--21392.815496mWCRHabibGanj, Madhya Pradesh
44/==/BPLBhopal Junction (6)X  16:45-16:50-5m221399.197497mWCRBhopal, Madhya Pradesh
45/==/BHSVidisha (3)X  17:23-17:24-1m121452.679 WCRVidisha, Madhya Pradesh
46/==/BAQGanj Basoda (4)XO  17:54-17:55-1m121491.974 WCRVidisha, Madhya Pradesh
47/==/MABAMandi Bamora (3)X  18:24 18:18-18:25 18:19-1m121520.425413mWCRState Highway 14, Madhya Pradesh
48/==/BINABina Junction (5)X  19:00-19:05-5m321537.771414mWCRJn Pt - KATNI/GUNA/ BPL/JHS, Madhya Pradesh
49/==/LARLalitpur (3)X  19:58-19:59-1m321600.688373mNCRLalitpur, Uttar Pradesh
50/==/BABBabina (3)X  20:43-20:44-1m221665.442285mNCRBabina, Uttar Pradesh
51/==/JHSJhansi Junction (7)X  21:20-21:30-10m--21690.976259mNCRJhansi, Uttar Pradesh
52/==/GWLGwalior Junction (4)  22:47-22:52-5m221788.689214mNCRGwalior, Madhya Pradesh
53/==/MRAMorena (3)  23:18-23:19-1m221827.255176mNCRMorena, Madhya Pradesh
54/==/AGCAgra Cantt. (6)X  00:49 00:45-00:50-1 5m231906.675174mNCRAgra, Uttar Pradesh
55/==/MTJMathura Junction (10)X  01:37 01:33-01:38-1 5m231960.362179mNCRMathura, Uttar Pradesh
56/==/BVHBallabgarh (5)  03:19-03:20-1m332065.440203mNRFaridabad, Haryana
57/==/FDBFaridabad (4)  03:32-03:33-1m232073.539206mNRold Faridabad, Haryana
58/==/NZMDelhi Hazrat Nizamuddin (7)  04:00 04:05--632094.3-209mNRNew Delhi 110013, Delhi NCT
Scroll to Top
Scroll to Bottom